Time;durP1;ratioP1;P1;durP2;ratioP2;P2;SDS_P1;SDS_P2;PMS_P1;PMS_P2;Temp;Humidity;BMP_temperature;BMP_pressure;BME280_temperature;BME280_humidity;BME280_pressure;Samples;Min_cycle;Max_cycle;Signal;HPM_P1;HPM_P2
2023/09/12 00:01:32;;;;;;;4.10;2.87;;;24.30;45.40;;;;;;4955590;28;20216;-50
2023/09/12 00:03:59;;;;;;;4.60;3.00;;;24.30;45.80;;;;;;4955714;28;20503;-50
2023/09/12 00:06:25;;;;;;;3.47;2.90;;;24.30;45.60;;;;;;4955534;28;20783;-50
2023/09/12 00:08:52;;;;;;;4.03;2.83;;;24.30;45.60;;;;;;4955996;28;20412;-50
2023/09/12 00:11:18;;;;;;;4.37;3.83;;;24.20;45.40;;;;;;4955441;28;20966;-49
2023/09/12 00:13:44;;;;;;;4.47;3.07;;;24.20;45.80;;;;;;4955736;28;20423;-51
2023/09/12 00:16:10;;;;;;;3.53;3.23;;;24.10;45.90;;;;;;4955483;28;20953;-49
2023/09/12 00:18:40;;;;;;;3.10;2.83;;;24.00;46.20;;;;;;4955295;28;20462;-50
2023/09/12 00:21:05;;;;;;;4.80;3.53;;;24.00;46.00;;;;;;4955451;28;20421;-50
2023/09/12 00:23:31;;;;;;;3.87;3.47;;;24.00;45.80;;;;;;4955396;28;20419;-50
2023/09/12 00:25:58;;;;;;;4.23;3.33;;;24.00;46.00;;;;;;4955118;28;20631;-50
2023/09/12 00:28:24;;;;;;;4.07;3.40;;;24.00;45.70;;;;;;4955345;28;20180;-50
2023/09/12 00:30:50;;;;;;;3.80;2.10;;;24.00;45.60;;;;;;4955048;28;20930;-50
2023/09/12 00:33:15;;;;;;;3.40;3.10;;;24.00;45.50;;;;;;4955075;28;20423;-49
2023/09/12 00:35:41;;;;;;;2.73;2.53;;;24.10;45.30;;;;;;4955074;28;20440;-50
2023/09/12 00:38:09;;;;;;;3.70;2.63;;;24.00;45.10;;;;;;4955300;28;20200;-51
2023/09/12 00:40:34;;;;;;;3.90;3.50;;;24.00;45.50;;;;;;4955014;28;20311;-49
2023/09/12 00:43:00;;;;;;;3.73;2.87;;;23.90;45.40;;;;;;4954350;28;20835;-50
2023/09/12 00:45:26;;;;;;;3.73;3.33;;;23.90;45.60;;;;;;4954913;28;20216;-51
2023/09/12 00:47:53;;;;;;;3.30;2.60;;;23.80;45.60;;;;;;4954778;29;20177;-51
2023/09/12 00:50:22;;;;;;;4.77;3.77;;;23.70;46.00;;;;;;4955024;28;20412;-51
2023/09/12 00:52:48;;;;;;;4.37;3.30;;;23.70;45.90;;;;;;4955024;28;20409;-50
2023/09/12 00:55:14;;;;;;;6.13;3.67;;;23.60;46.00;;;;;;4954747;28;20416;-50
2023/09/12 00:57:41;;;;;;;4.77;3.00;;;23.50;46.00;;;;;;4954785;28;20686;-51
2023/09/12 01:00:12;;;;;;;4.77;3.13;;;23.50;45.90;;;;;;4954721;28;20471;-51
2023/09/12 01:02:42;;;;;;;3.77;3.37;;;23.50;46.10;;;;;;4954484;28;20767;-50
2023/09/12 01:05:09;;;;;;;4.03;3.20;;;23.50;45.90;;;;;;4954663;28;20417;-49
2023/09/12 01:07:39;;;;;;;3.30;2.80;;;23.50;45.90;;;;;;4954659;28;20416;-51
2023/09/12 01:10:08;;;;;;;4.37;3.10;;;23.50;45.90;;;;;;4954538;28;20412;-51
2023/09/12 01:12:34;;;;;;;4.37;2.90;;;23.40;45.80;;;;;;4954374;28;20811;-50
2023/09/12 01:15:00;;;;;;;5.00;3.00;;;23.40;45.70;;;;;;4954366;28;20442;-49
2023/09/12 01:17:27;;;;;;;13.33;3.37;;;23.40;45.90;;;;;;4954615;28;20299;-50
2023/09/12 01:19:53;;;;;;;4.03;2.67;;;23.30;46.10;;;;;;4954471;28;20200;-50
2023/09/12 01:22:44;;;;;;;4.50;4.07;;;23.20;46.40;;;;;;4954101;28;20898;-50
2023/09/12 01:25:21;;;;;;;3.47;3.17;;;23.10;46.40;;;;;;4954104;28;20973;-50
2023/09/12 01:27:51;;;;;;;5.67;3.67;;;23.00;46.80;;;;;;4954371;28;20404;-50
2023/09/12 01:30:21;;;;;;;7.00;4.60;;;23.10;46.90;;;;;;4954243;28;20408;-50
2023/09/12 01:32:48;;;;;;;5.60;3.90;;;23.10;46.80;;;;;;4954022;28;20406;-51
2023/09/12 01:35:14;;;;;;;4.10;3.00;;;23.00;46.80;;;;;;4954181;28;20961;-50
2023/09/12 01:37:40;;;;;;;5.77;3.60;;;23.00;46.90;;;;;;4954090;28;20461;-51
2023/09/12 01:40:06;;;;;;;3.93;3.53;;;23.00;46.90;;;;;;4953996;29;20420;-50
2023/09/12 01:42:42;;;;;;;5.53;4.50;;;23.00;46.90;;;;;;4953977;28;20548;-49
2023/09/12 01:45:12;;;;;;;5.47;4.90;;;23.00;46.80;;;;;;4953993;28;20454;-50
2023/09/12 01:47:39;;;;;;;6.27;4.20;;;22.90;47.10;;;;;;4954023;28;20531;-49
2023/09/12 01:50:08;;;;;;;6.07;3.80;;;22.90;47.10;;;;;;4954033;28;20411;-50
2023/09/12 01:52:35;;;;;;;3.83;1.90;;;22.90;46.90;;;;;;4953697;28;20741;-49
2023/09/12 01:55:02;;;;;;;4.53;3.50;;;22.90;46.90;;;;;;4953882;28;20427;-51
2023/09/12 01:57:29;;;;;;;4.47;3.83;;;22.90;46.60;;;;;;4953820;28;20443;-50
2023/09/12 01:59:55;;;;;;;6.23;3.83;;;22.90;46.50;;;;;;4953968;28;20412;-49
2023/09/12 02:02:20;;;;;;;3.80;2.83;;;22.90;46.80;;;;;;4953621;28;20411;-49
2023/09/12 02:05:02;;;;;;;3.30;2.83;;;22.90;46.60;;;;;;4953851;28;20247;-50
2023/09/12 02:07:32;;;;;;;3.90;2.90;;;22.90;46.40;;;;;;4952677;29;20231;-50
2023/09/12 02:09:58;;;;;;;5.13;4.30;;;22.90;47.00;;;;;;4953857;28;20424;-50
2023/09/12 02:12:24;;;;;;;4.50;3.43;;;22.80;46.60;;;;;;4953628;28;20497;-50
2023/09/12 02:14:49;;;;;;;7.17;3.50;;;22.70;46.90;;;;;;4953871;28;20224;-50
2023/09/12 02:17:15;;;;;;;5.97;4.07;;;22.80;46.90;;;;;;4953572;29;20208;-51
2023/09/12 02:19:41;;;;;;;4.50;3.93;;;22.70;47.10;;;;;;4953771;28;20682;-49
2023/09/12 02:22:07;;;;;;;3.10;2.70;;;22.60;47.10;;;;;;4953808;28;20604;-49
2023/09/12 02:24:35;;;;;;;4.40;2.20;;;22.60;47.10;;;;;;4953659;28;20263;-50
2023/09/12 02:27:00;;;;;;;4.30;3.77;;;22.60;46.90;;;;;;4953538;29;20861;-49
2023/09/12 02:29:26;;;;;;;4.70;3.07;;;22.50;46.80;;;;;;4953712;28;20404;-50
2023/09/12 02:31:52;;;;;;;3.00;2.07;;;22.50;47.20;;;;;;4953457;29;20224;-50
2023/09/12 02:34:18;;;;;;;4.90;3.13;;;22.50;47.10;;;;;;4953493;28;20177;-51
2023/09/12 02:36:43;;;;;;;4.70;3.73;;;22.40;47.20;;;;;;4953519;28;20189;-50
2023/09/12 02:39:09;;;;;;;10.90;4.70;;;22.30;47.40;;;;;;4953474;28;20215;-49
2023/09/12 02:41:35;;;;;;;5.27;3.53;;;22.40;47.20;;;;;;4953373;28;20179;-49
2023/09/12 02:44:01;;;;;;;2.90;1.90;;;22.40;47.20;;;;;;4953617;28;20200;-50
2023/09/12 02:46:26;;;;;;;3.07;2.77;;;22.30;47.80;;;;;;4953404;28;20536;-50
2023/09/12 02:48:52;;;;;;;3.63;2.50;;;22.30;48.00;;;;;;4953464;28;20203;-51
2023/09/12 02:51:18;;;;;;;3.00;2.50;;;22.20;47.70;;;;;;4953280;28;20650;-50
2023/09/12 02:53:44;;;;;;;3.10;2.57;;;22.20;47.90;;;;;;4953461;28;20651;-48
2023/09/12 02:56:09;;;;;;;6.30;2.40;;;22.30;47.90;;;;;;4953662;28;20203;-50
2023/09/12 02:58:35;;;;;;;3.00;2.30;;;22.30;47.70;;;;;;4953359;29;20259;-49
2023/09/12 03:01:03;;;;;;;4.77;3.83;;;22.30;47.90;;;;;;4953136;29;20172;-50
2023/09/12 03:03:29;;;;;;;2.60;2.20;;;22.30;48.10;;;;;;4953249;28;20193;-50
2023/09/12 03:06:04;;;;;;;5.13;4.00;;;22.20;47.80;;;;;;4954948;28;20506;-50
2023/09/12 03:08:30;;;;;;;2.97;2.40;;;22.20;47.90;;;;;;4956785;28;20919;-51
2023/09/12 03:10:57;;;;;;;5.63;4.33;;;22.20;48.00;;;;;;4956639;28;20487;-49
2023/09/12 03:13:26;;;;;;;4.13;3.77;;;22.20;48.00;;;;;;4956763;28;20267;-50
2023/09/12 03:15:52;;;;;;;4.23;3.83;;;22.20;47.70;;;;;;4956487;28;20468;-49
2023/09/12 03:18:18;;;;;;;5.07;3.83;;;22.30;47.70;;;;;;4956523;28;20463;-49
2023/09/12 03:20:44;;;;;;;5.10;3.80;;;22.30;48.00;;;;;;4956384;28;20413;-49
2023/09/12 03:23:10;;;;;;;3.47;2.73;;;22.30;47.60;;;;;;4956639;28;20177;-49
2023/09/12 03:25:39;;;;;;;3.97;3.03;;;22.30;47.60;;;;;;4956326;28;20315;-50
2023/09/12 03:28:06;;;;;;;5.37;3.00;;;22.30;47.60;;;;;;4956478;28;20260;-49
2023/09/12 03:30:36;;;;;;;2.50;2.17;;;22.30;47.30;;;;;;4956063;28;20894;-49
2023/09/12 03:33:02;;;;;;;3.80;2.67;;;22.30;47.50;;;;;;4956408;28;20404;-49
2023/09/12 03:35:34;;;;;;;3.87;2.67;;;22.30;47.50;;;;;;4956215;28;20482;-50
2023/09/12 03:38:00;;;;;;;3.70;2.83;;;22.30;47.50;;;;;;4956176;29;20463;-49
2023/09/12 03:40:30;;;;;;;3.47;2.73;;;22.30;48.30;;;;;;4956063;28;20752;-49
2023/09/12 03:42:56;;;;;;;5.53;4.60;;;22.30;47.80;;;;;;4956131;28;20775;-50
2023/09/12 03:45:22;;;;;;;4.80;4.00;;;22.20;48.00;;;;;;4956236;28;20455;-49
2023/09/12 03:47:48;;;;;;;4.33;3.83;;;22.00;47.70;;;;;;4956139;28;20412;-49
2023/09/12 03:50:13;;;;;;;5.07;3.47;;;22.10;47.90;;;;;;4956038;28;20408;-49
2023/09/12 03:52:39;;;;;;;4.17;3.17;;;22.10;47.90;;;;;;4955879;28;20579;-50
2023/09/12 03:55:05;;;;;;;4.10;2.70;;;22.00;48.20;;;;;;4955886;29;20263;-51
2023/09/12 03:57:31;;;;;;;2.87;2.50;;;22.00;48.20;;;;;;4955738;28;20539;-50
2023/09/12 03:59:57;;;;;;;4.23;3.33;;;22.10;48.00;;;;;;4955850;28;20937;-51
2023/09/12 04:02:23;;;;;;;3.83;2.50;;;22.10;48.20;;;;;;4955753;28;20181;-50
2023/09/12 04:04:49;;;;;;;3.20;2.47;;;22.10;48.20;;;;;;4955763;28;20512;-51
2023/09/12 04:07:15;;;;;;;3.50;2.80;;;22.10;48.00;;;;;;4955670;29;20515;-49
2023/09/12 04:09:40;;;;;;;3.63;2.13;;;22.00;48.30;;;;;;4955634;28;20176;-50
2023/09/12 04:12:08;;;;;;;4.13;3.73;;;22.00;48.00;;;;;;4955337;29;20412;-49
2023/09/12 04:14:35;;;;;;;4.13;3.73;;;22.10;48.20;;;;;;4955571;28;20648;-49
2023/09/12 04:17:00;;;;;;;3.03;2.53;;;22.10;48.10;;;;;;4954373;28;20856;-49
2023/09/12 04:19:26;;;;;;;4.17;3.23;;;22.10;47.80;;;;;;4955465;28;20507;-50
2023/09/12 04:21:52;;;;;;;2.90;2.60;;;22.10;48.00;;;;;;4955192;29;20269;-51
2023/09/12 04:24:17;;;;;;;3.73;2.90;;;22.00;47.90;;;;;;4955464;28;20169;-51
2023/09/12 04:26:44;;;;;;;5.70;3.60;;;22.00;48.00;;;;;;4955110;28;20223;-50
2023/09/12 04:29:10;;;;;;;4.10;2.60;;;21.90;48.40;;;;;;4955214;28;20176;-50
2023/09/12 04:31:36;;;;;;;2.90;2.27;;;21.90;48.20;;;;;;4955027;28;20930;-52
2023/09/12 04:34:02;;;;;;;4.90;2.00;;;21.90;47.90;;;;;;4955322;28;20412;-49
2023/09/12 04:36:28;;;;;;;2.90;2.47;;;22.00;47.60;;;;;;4955128;28;20447;-49
2023/09/12 04:38:53;;;;;;;5.30;4.13;;;22.00;47.50;;;;;;4955158;28;20204;-52
2023/09/12 04:41:19;;;;;;;4.80;3.10;;;22.00;47.20;;;;;;4954885;28;20670;-51
2023/09/12 04:43:45;;;;;;;3.33;2.00;;;22.00;48.00;;;;;;4954990;28;20571;-49
2023/09/12 04:46:11;;;;;;;4.77;3.70;;;22.00;47.20;;;;;;4955126;28;20215;-51
2023/09/12 04:48:38;;;;;;;3.37;2.53;;;22.00;47.30;;;;;;4955139;28;20420;-49
2023/09/12 04:51:04;;;;;;;3.13;2.43;;;21.90;47.40;;;;;;4954752;28;20424;-52
2023/09/12 04:53:34;;;;;;;5.30;3.93;;;21.80;47.60;;;;;;4954778;28;20451;-53
2023/09/12 04:56:01;;;;;;;3.73;2.90;;;21.70;47.80;;;;;;4954626;28;20432;-49
2023/09/12 04:58:27;;;;;;;5.20;3.20;;;21.70;48.00;;;;;;4954833;28;20829;-49
2023/09/12 05:00:54;;;;;;;4.03;2.83;;;21.70;48.00;;;;;;4953495;29;20988;-49
2023/09/12 05:03:19;;;;;;;7.83;2.83;;;21.70;48.10;;;;;;4954754;28;20173;-48
2023/09/12 05:05:47;;;;;;;4.27;2.20;;;21.70;48.20;;;;;;4954625;28;20768;-48
2023/09/12 05:08:12;;;;;;;4.70;2.90;;;21.70;48.30;;;;;;4954587;28;20259;-48
2023/09/12 05:10:38;;;;;;;5.30;3.77;;;21.60;48.30;;;;;;4954450;28;20827;-49
2023/09/12 05:13:05;;;;;;;2.90;2.20;;;21.70;48.30;;;;;;4954448;28;20930;-52
2023/09/12 05:15:31;;;;;;;5.33;3.67;;;21.70;49.10;;;;;;4954542;28;20433;-49
2023/09/12 05:17:56;;;;;;;4.33;3.63;;;21.70;48.10;;;;;;4954414;28;20799;-50
2023/09/12 05:20:22;;;;;;;6.50;3.47;;;21.70;48.60;;;;;;4954465;28;20416;-51
2023/09/12 05:22:48;;;;;;;4.33;3.60;;;21.80;48.60;;;;;;4954226;28;20173;-51
2023/09/12 05:25:14;;;;;;;4.73;3.47;;;21.80;48.60;;;;;;4954052;28;20187;-48
2023/09/12 05:27:40;;;;;;;4.87;3.50;;;21.80;48.90;;;;;;4954273;28;20176;-49
2023/09/12 05:30:06;;;;;;;2.57;2.30;;;21.90;48.80;;;;;;4954223;28;20903;-51
2023/09/12 05:32:32;;;;;;;5.53;2.90;;;21.90;48.60;;;;;;4954112;28;20180;-50
2023/09/12 05:35:00;;;;;;;5.07;3.03;;;21.90;48.90;;;;;;4954205;29;20412;-48
2023/09/12 05:37:26;;;;;;;2.93;2.63;;;21.90;49.00;;;;;;4954042;28;20614;-49
2023/09/12 05:39:52;;;;;;;4.00;2.57;;;22.00;49.30;;;;;;4954344;28;20923;-48
2023/09/12 05:42:20;;;;;;;5.00;3.13;;;22.00;49.10;;;;;;4953870;28;20199;-50
2023/09/12 05:44:49;;;;;;;4.77;3.43;;;22.00;49.00;;;;;;4954273;28;20203;-49
2023/09/12 05:47:15;;;;;;;5.03;3.80;;;22.10;48.90;;;;;;4953904;28;20523;-49
2023/09/12 05:49:41;;;;;;;4.37;3.27;;;22.20;49.30;;;;;;4954038;28;20446;-52
2023/09/12 05:52:06;;;;;;;3.63;2.30;;;22.30;49.00;;;;;;4953730;28;20748;-49
2023/09/12 05:54:32;;;;;;;4.10;3.03;;;22.30;49.10;;;;;;4954180;28;20412;-49
2023/09/12 05:56:58;;;;;;;3.63;2.80;;;22.30;49.20;;;;;;4953868;28;20231;-51
2023/09/12 05:59:24;;;;;;;5.70;4.33;;;22.40;49.20;;;;;;4953817;29;20240;-50
2023/09/12 06:01:49;;;;;;;4.07;2.83;;;22.40;49.10;;;;;;4953671;28;20173;-49
2023/09/12 06:04:15;;;;;;;3.27;2.80;;;22.60;48.90;;;;;;4953900;28;20184;-52
2023/09/12 06:06:41;;;;;;;5.10;3.73;;;22.70;48.60;;;;;;4953712;28;20219;-49
2023/09/12 06:09:08;;;;;;;5.13;3.87;;;22.80;48.80;;;;;;4953859;28;20231;-49
2023/09/12 06:11:34;;;;;;;4.10;2.90;;;22.90;48.80;;;;;;4953574;28;20450;-49
2023/09/12 06:14:00;;;;;;;6.40;3.80;;;23.10;48.70;;;;;;4953738;28;20417;-51
2023/09/12 06:16:26;;;;;;;4.23;3.10;;;23.20;48.80;;;;;;4953672;28;20225;-50
2023/09/12 06:18:53;;;;;;;4.57;3.63;;;23.30;48.60;;;;;;4953639;28;20659;-50
2023/09/12 06:21:21;;;;;;;4.43;3.77;;;23.40;48.30;;;;;;4953390;28;20421;-51
2023/09/12 06:23:48;;;;;;;5.27;2.90;;;23.50;48.40;;;;;;4953890;28;20775;-50
2023/09/12 06:26:14;;;;;;;5.90;3.40;;;23.60;48.40;;;;;;4953540;28;20456;-48
2023/09/12 06:28:40;;;;;;;5.83;3.60;;;23.70;48.10;;;;;;4953655;29;20419;-52
2023/09/12 06:31:09;;;;;;;4.53;2.80;;;23.80;47.80;;;;;;4953470;28;20227;-50
2023/09/12 06:33:35;;;;;;;3.07;2.77;;;23.90;47.80;;;;;;4953622;28;20499;-49
2023/09/12 06:36:01;;;;;;;6.73;3.80;;;23.90;47.40;;;;;;4953550;28;20479;-50
2023/09/12 06:38:26;;;;;;;4.83;4.00;;;24.00;47.30;;;;;;4953475;28;20216;-52
2023/09/12 06:40:52;;;;;;;3.70;3.07;;;24.10;47.50;;;;;;4955245;28;20255;-52
2023/09/12 06:43:18;;;;;;;3.10;2.80;;;24.20;47.30;;;;;;4957617;29;20176;-48
2023/09/12 06:45:45;;;;;;;3.30;3.00;;;24.30;47.50;;;;;;4957259;28;20200;-50
2023/09/12 06:48:10;;;;;;;3.90;2.90;;;24.40;47.30;;;;;;4957176;28;20423;-51
2023/09/12 06:50:38;;;;;;;5.40;3.50;;;24.50;46.70;;;;;;4956956;28;20416;-49
2023/09/12 06:53:06;;;;;;;3.60;2.80;;;24.50;46.70;;;;;;4957311;28;20261;-51
2023/09/12 06:55:32;;;;;;;7.23;3.53;;;24.60;46.80;;;;;;4956967;28;20420;-51
2023/09/12 06:57:58;;;;;;;4.00;2.80;;;24.70;47.00;;;;;;4957023;28;20539;-47
2023/09/12 07:00:26;;;;;;;6.43;3.57;;;24.80;46.60;;;;;;4956906;28;21207;-53
2023/09/12 07:02:52;;;;;;;2.73;2.30;;;24.80;46.70;;;;;;4956757;28;20223;-50
2023/09/12 07:05:18;;;;;;;3.53;2.43;;;24.90;46.60;;;;;;4956846;28;20878;-48
2023/09/12 07:07:43;;;;;;;6.20;2.83;;;24.90;46.40;;;;;;4956850;28;20176;-51
2023/09/12 07:10:09;;;;;;;3.80;2.87;;;25.00;46.20;;;;;;4956895;28;20184;-51
2023/09/12 07:12:35;;;;;;;2.77;2.37;;;25.10;45.60;;;;;;4956683;28;20185;-47
2023/09/12 07:15:01;;;;;;;3.80;3.20;;;25.20;45.70;;;;;;4956603;28;20515;-52
2023/09/12 07:17:30;;;;;;;3.70;2.40;;;25.30;45.80;;;;;;4956527;29;20196;-50
2023/09/12 07:19:55;;;;;;;5.20;3.33;;;25.40;45.20;;;;;;4956617;28;20408;-52
2023/09/12 07:22:21;;;;;;;3.33;2.20;;;25.50;45.20;;;;;;4956313;28;20412;-49
2023/09/12 07:24:47;;;;;;;4.07;2.23;;;25.60;45.20;;;;;;4956458;28;20259;-48
2023/09/12 07:27:12;;;;;;;3.43;3.13;;;25.70;45.00;;;;;;4956342;28;20200;-52
2023/09/12 07:29:38;;;;;;;2.40;2.20;;;25.80;44.60;;;;;;4956476;28;20211;-50
2023/09/12 07:32:04;;;;;;;2.73;2.40;;;25.90;44.70;;;;;;4956098;28;20239;-49
2023/09/12 07:34:30;;;;;;;4.97;3.57;;;26.00;44.40;;;;;;4956400;28;20176;-51
2023/09/12 07:36:56;;;;;;;4.87;3.47;;;26.20;44.20;;;;;;4956260;28;20476;-47
2023/09/12 07:39:21;;;;;;;3.20;2.90;;;26.20;43.90;;;;;;4956254;28;20204;-52
2023/09/12 07:41:47;;;;;;;4.90;2.07;;;26.30;43.60;;;;;;4956009;28;20172;-50
2023/09/12 07:44:15;;;;;;;3.07;2.50;;;26.40;42.80;;;;;;4956155;28;20177;-48
2023/09/12 07:46:41;;;;;;;4.93;2.90;;;26.50;43.30;;;;;;4955868;28;20196;-50
2023/09/12 07:49:09;;;;;;;3.20;2.77;;;26.60;43.40;;;;;;4956048;28;20427;-49
2023/09/12 07:51:35;;;;;;;3.20;2.87;;;26.60;43.80;;;;;;4955616;28;20771;-49
2023/09/12 07:54:01;;;;;;;2.50;2.20;;;26.80;43.40;;;;;;4955934;28;20799;-47
2023/09/12 07:56:27;;;;;;;3.10;2.10;;;26.90;43.20;;;;;;4955840;28;21025;-50
2023/09/12 07:58:53;;;;;;;2.50;2.17;;;27.00;43.20;;;;;;4955815;28;20460;-51
2023/09/12 08:01:19;;;;;;;3.37;2.53;;;27.10;43.40;;;;;;4955536;28;20181;-52
2023/09/12 08:03:45;;;;;;;4.83;3.23;;;27.20;43.30;;;;;;4955822;28;20173;-51
2023/09/12 08:06:10;;;;;;;5.67;3.13;;;27.30;42.70;;;;;;4955665;28;20425;-48
2023/09/12 08:08:36;;;;;;;6.43;2.77;;;27.40;42.90;;;;;;4955825;28;20183;-49
2023/09/12 08:11:02;;;;;;;3.53;3.10;;;27.50;42.90;;;;;;4955508;28;20544;-52
2023/09/12 08:13:29;;;;;;;4.93;2.80;;;27.60;42.70;;;;;;4955761;28;20495;-49
2023/09/12 08:15:56;;;;;;;3.70;2.87;;;27.80;41.80;;;;;;4955381;28;20436;-49
2023/09/12 08:18:22;;;;;;;3.20;2.90;;;27.90;40.80;;;;;;4955697;28;20466;-50
2023/09/12 08:20:48;;;;;;;2.90;2.50;;;27.90;41.20;;;;;;4955371;29;20412;-50
2023/09/12 08:23:13;;;;;;;4.03;2.00;;;28.00;42.30;;;;;;4955512;28;20408;-50
2023/09/12 08:25:42;;;;;;;3.50;2.30;;;28.10;42.40;;;;;;4955337;28;20211;-53
2023/09/12 08:28:08;;;;;;;4.47;2.80;;;28.30;40.80;;;;;;4955350;28;20718;-49
2023/09/12 08:30:33;;;;;;;3.80;3.23;;;28.20;40.60;;;;;;4955185;28;20495;-52
2023/09/12 08:33:02;;;;;;;2.90;2.03;;;28.30;41.20;;;;;;4955257;29;20280;-49
2023/09/12 08:35:28;;;;;;;2.83;2.53;;;28.40;41.20;;;;;;4955344;28;20208;-49
2023/09/12 08:37:54;;;;;;;1.83;1.50;;;28.50;41.10;;;;;;4955127;28;20515;-51
2023/09/12 08:40:20;;;;;;;3.33;2.13;;;28.60;40.80;;;;;;4955069;28;20207;-49
2023/09/12 08:42:47;;;;;;;3.60;1.93;;;28.70;40.30;;;;;;4954893;28;20177;-50
2023/09/12 08:45:17;;;;;;;2.93;2.00;;;28.90;40.00;;;;;;4954934;28;20203;-53
2023/09/12 08:47:53;;;;;;;3.30;2.10;;;28.90;40.00;;;;;;4954931;28;20408;-50
2023/09/12 08:50:20;;;;;;;3.83;2.57;;;29.00;40.40;;;;;;4954977;28;20483;-50
2023/09/12 08:52:47;;;;;;;2.00;1.60;;;29.10;39.70;;;;;;4954774;28;20922;-50
2023/09/12 08:55:13;;;;;;;2.10;1.57;;;29.10;39.60;;;;;;4954700;28;20416;-50
2023/09/12 08:57:42;;;;;;;2.40;1.90;;;29.20;39.60;;;;;;4954633;28;20464;-50
2023/09/12 09:00:10;;;;;;;2.83;2.37;;;29.30;39.40;;;;;;4954700;28;20930;-51
2023/09/12 09:02:38;;;;;;;3.23;2.33;;;29.40;39.40;;;;;;4954115;28;20413;-50
2023/09/12 09:05:05;;;;;;;2.70;2.33;;;29.40;38.70;;;;;;4954655;28;20455;-50
2023/09/12 09:07:41;;;;;;;2.50;2.20;;;29.40;38.60;;;;;;4954552;28;20413;-50
2023/09/12 09:10:14;;;;;;;3.67;2.23;;;29.50;38.30;;;;;;4954551;28;20442;-50
2023/09/12 09:12:40;;;;;;;4.70;2.73;;;29.40;37.10;;;;;;4954499;28;20913;-50
2023/09/12 09:15:26;;;;;;;3.93;2.73;;;29.40;36.80;;;;;;4954531;28;20416;-52
2023/09/12 09:17:53;;;;;;;3.37;2.60;;;29.40;37.70;;;;;;4954381;28;20467;-52
2023/09/12 09:20:31;;;;;;;5.00;1.97;;;29.50;37.40;;;;;;4954331;28;20408;-51
2023/09/12 09:23:10;;;;;;;4.67;3.60;;;29.60;37.30;;;;;;4954413;28;20894;-49
2023/09/12 09:25:40;;;;;;;2.80;1.87;;;29.60;37.70;;;;;;4954203;28;20444;-52
2023/09/12 09:28:18;;;;;;;3.07;2.00;;;29.70;36.10;;;;;;4954452;28;20552;-49
2023/09/12 09:30:45;;;;;;;2.80;1.50;;;29.90;36.80;;;;;;4953929;28;20839;-51
2023/09/12 09:33:12;;;;;;;3.30;1.93;;;30.00;37.00;;;;;;4954430;28;20415;-51
2023/09/12 09:35:41;;;;;;;3.77;2.50;;;30.00;35.90;;;;;;4954131;28;20426;-49
2023/09/12 09:38:08;;;;;;;3.23;2.53;;;30.10;36.70;;;;;;4954016;28;20867;-52
2023/09/12 09:40:35;;;;;;;1.80;1.50;;;30.10;36.80;;;;;;4953989;28;20439;-47
2023/09/12 09:43:03;;;;;;;3.97;2.33;;;30.30;37.10;;;;;;4954246;28;20409;-52
2023/09/12 09:45:30;;;;;;;3.60;2.73;;;30.40;36.80;;;;;;4953936;28;20428;-52
2023/09/12 09:48:06;;;;;;;2.07;1.87;;;30.50;35.30;;;;;;4954195;28;20437;-50
2023/09/12 09:50:36;;;;;;;3.67;2.53;;;30.60;36.30;;;;;;4953762;28;20407;-49
2023/09/12 09:53:04;;;;;;;1.83;1.60;;;30.70;35.20;;;;;;4954038;28;20415;-52
2023/09/12 09:55:30;;;;;;;2.87;1.93;;;30.80;35.40;;;;;;4953810;28;20431;-49
2023/09/12 09:57:56;;;;;;;3.00;2.20;;;31.00;36.30;;;;;;4953806;28;21009;-50
2023/09/12 10:00:23;;;;;;;3.27;1.60;;;31.20;36.10;;;;;;4953911;28;20412;-51
2023/09/12 10:02:51;;;;;;;3.03;1.47;;;31.30;35.50;;;;;;4953790;28;20180;-53
2023/09/12 10:05:18;;;;;;;1.97;1.13;;;31.30;35.40;;;;;;4953708;28;20974;-49
2023/09/12 10:07:52;;;;;;;1.80;1.50;;;31.40;33.90;;;;;;4953936;28;20408;-49
2023/09/12 10:10:19;;;;;;;1.70;1.50;;;31.50;31.90;;;;;;4953848;28;20414;-51
2023/09/12 10:12:58;;;;;;;2.53;1.90;;;31.50;32.90;;;;;;4953675;28;20779;-50
2023/09/12 10:15:28;;;;;;;2.63;1.17;;;31.50;32.90;;;;;;4954790;28;21014;-51
2023/09/12 10:18:04;;;;;;;1.90;1.40;;;31.50;33.80;;;;;;4957733;28;20461;-52
2023/09/12 10:20:49;;;;;;;2.13;1.60;;;31.60;34.70;;;;;;4957662;28;20403;-48
2023/09/12 10:23:41;;;;;;;1.60;1.43;;;31.70;32.60;;;;;;4957744;28;20501;-49
2023/09/12 10:26:13;;;;;;;2.80;1.43;;;31.80;32.70;;;;;;4957476;28;20451;-53
2023/09/12 10:28:43;;;;;;;1.70;1.23;;;31.80;30.60;;;;;;4957643;28;20412;-50
2023/09/12 10:31:11;;;;;;;2.20;1.30;;;31.90;30.20;;;;;;4957240;28;20443;-49
2023/09/12 10:33:37;;;;;;;2.33;1.33;;;31.90;31.60;;;;;;4957456;28;20420;-53
2023/09/12 10:36:05;;;;;;;5.13;1.53;;;31.90;32.60;;;;;;4957354;28;20491;-50
2023/09/12 10:38:34;;;;;;;2.67;1.60;;;32.00;32.10;;;;;;4957248;28;20311;-52
2023/09/12 10:41:03;;;;;;;2.07;1.40;;;32.10;32.60;;;;;;4957276;28;20922;-50
2023/09/12 10:43:29;;;;;;;2.80;1.90;;;32.10;31.00;;;;;;4957287;28;20410;-49
2023/09/12 10:45:59;;;;;;;2.60;1.50;;;32.10;32.50;;;;;;4957120;28;20459;-52
2023/09/12 10:48:25;;;;;;;2.27;1.33;;;32.20;32.80;;;;;;4957058;28;20420;-51
2023/09/12 10:50:51;;;;;;;2.07;1.37;;;32.20;30.80;;;;;;4956871;28;20408;-49
2023/09/12 10:53:17;;;;;;;2.07;1.30;;;32.40;32.50;;;;;;4957071;29;20244;-51
2023/09/12 10:56:00;;;;;;;2.87;1.63;;;32.40;30.70;;;;;;4957085;28;20795;-49
2023/09/12 10:58:26;;;;;;;2.27;1.47;;;32.50;30.30;;;;;;4956824;28;20538;-51
2023/09/12 11:01:26;;;;;;;2.60;1.83;;;32.50;31.30;;;;;;4956924;28;20432;-49
2023/09/12 11:03:52;;;;;;;2.10;1.20;;;32.60;31.80;;;;;;4956878;28;20404;-51
2023/09/12 11:06:23;;;;;;;1.77;1.40;;;32.60;32.30;;;;;;4956757;28;20431;-49
2023/09/12 11:09:14;;;;;;;1.50;1.17;;;32.70;32.60;;;;;;4956734;28;20815;-51
2023/09/12 11:11:46;;;;;;;3.37;1.60;;;32.80;32.30;;;;;;4956806;28;20890;-51
2023/09/12 11:14:13;;;;;;;2.00;1.63;;;33.00;32.30;;;;;;4956788;28;20786;-52
2023/09/12 11:16:41;;;;;;;2.23;1.90;;;33.00;32.60;;;;;;4956512;28;20564;-50
2023/09/12 11:19:23;;;;;;;3.40;2.63;;;33.10;32.30;;;;;;4956411;28;20978;-52
2023/09/12 11:21:53;;;;;;;1.67;1.10;;;33.10;32.20;;;;;;4956630;28;20466;-49
2023/09/12 11:24:20;;;;;;;2.77;1.40;;;33.20;31.90;;;;;;4956670;28;20782;-52
2023/09/12 11:27:12;;;;;;;1.70;1.00;;;33.30;32.00;;;;;;4955845;28;20456;-49
2023/09/12 11:29:40;;;;;;;2.03;1.43;;;33.30;32.20;;;;;;4955211;28;20432;-49
2023/09/12 11:32:07;;;;;;;2.03;1.50;;;33.30;32.00;;;;;;4956396;28;20408;-53
2023/09/12 11:34:42;;;;;;;1.67;1.13;;;33.30;32.10;;;;;;4956420;28;20417;-49
2023/09/12 11:37:08;;;;;;;1.83;1.10;;;33.30;31.80;;;;;;4956232;28;20436;-49
2023/09/12 11:39:39;;;;;;;1.93;1.37;;;33.30;30.80;;;;;;4956225;28;20981;-53
2023/09/12 11:42:09;;;;;;;2.37;1.17;;;33.30;31.10;;;;;;4955952;28;20452;-51
2023/09/12 11:44:35;;;;;;;4.10;2.13;;;33.40;31.70;;;;;;4956413;28;20412;-52
2023/09/12 11:47:06;;;;;;;2.13;1.23;;;33.50;31.90;;;;;;4956098;28;20471;-50
2023/09/12 11:49:41;;;;;;;3.53;1.73;;;33.60;30.90;;;;;;4956212;28;20191;-50
2023/09/12 11:52:12;;;;;;;1.70;1.07;;;33.60;30.70;;;;;;4955861;28;20420;-51
2023/09/12 11:54:42;;;;;;;2.17;1.30;;;33.70;30.80;;;;;;4955920;28;20431;-49
2023/09/12 11:57:10;;;;;;;1.80;1.20;;;33.70;30.70;;;;;;4956175;28;20440;-52
2023/09/12 11:59:40;;;;;;;2.00;1.40;;;33.70;30.60;;;;;;4955974;28;21032;-49
2023/09/12 12:02:10;;;;;;;2.37;1.60;;;33.80;30.60;;;;;;4955721;28;20412;-52
2023/09/12 12:04:37;;;;;;;2.10;1.70;;;33.80;30.60;;;;;;4955857;28;20421;-52
2023/09/12 12:07:06;;;;;;;1.83;1.30;;;33.90;30.30;;;;;;4955623;28;20434;-49
2023/09/12 12:09:34;;;;;;;2.73;1.30;;;33.90;30.70;;;;;;4955834;28;20918;-52
2023/09/12 12:12:04;;;;;;;2.27;1.83;;;34.00;31.10;;;;;;4955474;28;20447;-51
2023/09/12 12:14:34;;;;;;;2.10;1.33;;;34.00;31.10;;;;;;4955612;28;20463;-49
2023/09/12 12:17:09;;;;;;;2.43;1.00;;;34.00;30.70;;;;;;4955554;28;20476;-50
2023/09/12 12:19:36;;;;;;;2.60;1.50;;;34.10;30.60;;;;;;4955530;28;20555;-49
2023/09/12 12:22:05;;;;;;;1.93;1.43;;;34.10;29.40;;;;;;4955303;28;20410;-50
2023/09/12 12:24:41;;;;;;;2.10;1.40;;;34.20;28.50;;;;;;4955601;28;20404;-51
2023/09/12 12:27:08;;;;;;;1.77;1.20;;;34.20;29.40;;;;;;4955350;28;20460;-49
2023/09/12 12:29:35;;;;;;;2.23;1.43;;;34.20;29.20;;;;;;4955343;28;20417;-52
2023/09/12 12:32:02;;;;;;;2.20;1.40;;;34.30;29.60;;;;;;4955047;28;20431;-50
2023/09/12 12:34:29;;;;;;;1.80;0.83;;;34.40;28.50;;;;;;4955294;28;20416;-50
2023/09/12 12:36:55;;;;;;;4.07;1.50;;;34.40;29.40;;;;;;4955147;28;20985;-53
2023/09/12 12:39:22;;;;;;;1.77;1.30;;;34.60;29.40;;;;;;4954244;28;20474;-53
2023/09/12 12:41:48;;;;;;;1.83;1.07;;;34.50;27.80;;;;;;4954955;28;20423;-48
2023/09/12 12:44:15;;;;;;;2.63;1.70;;;34.50;27.60;;;;;;4955083;28;20408;-53
2023/09/12 12:46:52;;;;;;;1.80;1.00;;;34.50;28.20;;;;;;4954788;28;20436;-51
2023/09/12 12:49:18;;;;;;;1.43;0.90;;;34.50;28.10;;;;;;4955254;28;20420;-51
2023/09/12 12:51:45;;;;;;;1.50;0.87;;;34.60;27.20;;;;;;4954781;28;20442;-53